Accueil
METAR-TAF:

METAR-TAF

Aéroports :

Tottori, Japon

latitude: 35-32N, longitude: 134-10E, altitude: 15 m

Observation

Le bulletin a été fait il y a 49 minutes, à 11:00 UTC
Vent 9 kt de ouest/sud-ouest avec des rafales jusqu'à 21 kt, variant entre sud/sud-ouest et ouest/nord-ouest
Température 7°C
Humidité 61%
Pression 1019 hPa
Visibilité 10 km ou plus
Quelques nuages à une hauteur de 2000 ft
Nuages épars à une hauteur de 4000 ft
Nuages fragmentés à une hauteur de 6000 ft
averses à proximité

METAR: RJOR 201100Z 24009G21KT 210V290 9999 VCSH FEW020 SCT040 BKN060 07/00 Q1019

Heure: 20:49 (11:49 UTC)


TAF: absent

Observations et prévisions météorologiques de plus de 4000 aéroports (messages METAR et TAF).

Les stations disponibles sont représentées par des disques jaunes et rouges sur la carte.

Passer la souris dessus pour voir le nom de la station.

Cliquer dessus pour voir les observations et prévisions météorologiques.

Pour changer de carte: cliquez sur les boutons verts avec une croix noire pour zoomer, sur le bouton vert avec un tiret pour effectuer un zoom arrière, ou sur les flèches vertes pour les cartes adjacentes.


METAR-TAF: